Time;durP1;ratioP1;P1;durP2;ratioP2;P2;SDS_P1;SDS_P2;PMS_P1;PMS_P2;Temp;Humidity;BMP_temperature;BMP_pressure;BME280_temperature;BME280_humidity;BME280_pressure;Samples;Min_cycle;Max_cycle;Signal;HPM_P1;HPM_P2
2022/05/03 00:02:25;;;;;;;18.48;3.72;;;11.30;99.90;;;;;;5261643;28;20070;-76
2022/05/03 00:05:07;;;;;;;11.60;3.72;;;11.40;99.90;;;;;;5257353;28;20036;-91
2022/05/03 00:07:47;;;;;;;11.15;3.80;;;11.40;99.90;;;;;;5256661;28;20005;-93
2022/05/03 00:10:28;;;;;;;12.43;3.63;;;11.40;99.90;;;;;;5257164;28;20028;-89
2022/05/03 00:13:05;;;;;;;15.20;4.65;;;11.40;99.90;;;;;;5256490;28;20499;-79
2022/05/03 00:15:39;;;;;;;11.07;3.40;;;11.30;99.90;;;;;;5257016;28;20032;-76
2022/05/03 00:18:11;;;;;;;13.93;3.80;;;11.40;99.90;;;;;;5261678;22;20056;-75
2022/05/03 00:20:46;;;;;;;18.15;4.40;;;11.60;99.90;;;;;;5257298;28;20029;-76
2022/05/03 00:23:18;;;;;;;9.88;3.17;;;11.50;99.90;;;;;;5262247;22;20063;-76
2022/05/03 00:25:51;;;;;;;13.02;3.65;;;11.40;99.90;;;;;;5256626;22;20408;-75
2022/05/03 00:28:22;;;;;;;11.07;2.75;;;11.40;99.90;;;;;;5258147;22;20075;-91
2022/05/03 00:30:55;;;;;;;17.50;3.38;;;11.40;99.90;;;;;;5252873;28;20448;-76
2022/05/03 00:33:29;;;;;;;10.65;3.22;;;11.40;99.90;;;;;;5253869;28;20439;-76
2022/05/03 00:36:00;;;;;;;13.15;3.30;;;11.40;99.90;;;;;;5251094;28;20086;-90
2022/05/03 00:38:34;;;;;;;13.00;3.55;;;11.40;99.90;;;;;;5255347;28;20013;-91
2022/05/03 00:41:10;;;;;;;26.17;7.43;;;11.30;99.90;;;;;;5248258;28;20036;-83
2022/05/03 00:43:52;;;;;;;22.77;7.93;;;11.40;99.90;;;;;;5247977;28;20024;-75
2022/05/03 00:46:29;;;;;;;85.78;32.53;;;11.40;99.90;;;;;;5247871;28;20051;-76
2022/05/03 00:49:25;;;;;;;52.72;21.75;;;11.60;99.90;;;;;;5248020;28;20107;-76
2022/05/03 00:51:56;;;;;;;41.58;18.05;;;11.50;99.90;;;;;;5247881;28;20111;-76
2022/05/03 00:54:27;;;;;;;21.85;8.93;;;11.30;99.90;;;;;;5248002;28;20107;-77
2022/05/03 00:57:20;;;;;;;34.35;13.07;;;11.20;99.90;;;;;;5247929;28;20107;-83
2022/05/03 01:00:07;;;;;;;17.83;7.22;;;11.30;99.90;;;;;;5247990;28;20043;-78
2022/05/03 01:02:52;;;;;;;13.18;5.45;;;11.20;99.90;;;;;;5247931;28;20020;-76
2022/05/03 01:05:28;;;;;;;16.92;7.03;;;11.30;99.90;;;;;;5247955;28;20025;-76
2022/05/03 01:08:07;;;;;;;19.48;7.32;;;11.40;99.90;;;;;;5248039;28;20033;-77
2022/05/03 01:10:57;;;;;;;17.35;7.47;;;11.40;99.90;;;;;;5248184;28;20499;-76
2022/05/03 01:13:40;;;;;;;19.17;8.77;;;11.40;99.90;;;;;;5248661;28;20017;-76
2022/05/03 01:16:39;;;;;;;31.17;10.38;;;11.30;99.90;;;;;;5247880;28;20058;-76
2022/05/03 01:19:31;;;;;;;18.58;7.47;;;11.30;99.90;;;;;;5247829;28;20024;-76
2022/05/03 01:22:31;;;;;;;17.00;6.30;;;11.10;99.90;;;;;;5249099;28;20380;-76
2022/05/03 01:25:14;;;;;;;16.27;4.35;;;11.10;99.90;;;;;;5251750;28;20017;-76
2022/05/03 01:27:52;;;;;;;20.17;8.93;;;11.00;99.90;;;;;;5251478;28;20045;-76
2022/05/03 01:30:25;;;;;;;18.95;6.40;;;11.00;99.90;;;;;;5251449;28;20024;-88
2022/05/03 01:33:05;;;;;;;20.55;9.43;;;11.20;99.90;;;;;;5251579;28;20027;-76
2022/05/03 01:35:39;;;;;;;18.42;8.95;;;11.10;99.90;;;;;;5251424;28;20067;-87
2022/05/03 01:38:35;;;;;;;20.90;9.57;;;10.90;99.90;;;;;;5251356;28;20029;-77
2022/05/03 01:41:32;;;;;;;25.83;12.50;;;11.00;99.90;;;;;;5250254;28;20048;-76
2022/05/03 01:44:15;;;;;;;15.80;6.72;;;11.00;99.90;;;;;;5251520;28;20063;-88
2022/05/03 01:46:53;;;;;;;12.93;5.40;;;11.00;99.90;;;;;;5251431;28;20036;-76
2022/05/03 01:53:06;;;;;;;13.52;3.80;;;10.80;99.90;;;;;;5240731;28;20123;-77
2022/05/03 01:56:01;;;;;;;19.27;7.35;;;10.80;99.90;;;;;;5251101;28;20030;-76
2022/05/03 01:58:35;;;;;;;15.98;6.18;;;10.90;99.90;;;;;;5251070;28;20036;-76
2022/05/03 02:01:24;;;;;;;20.45;7.57;;;10.90;99.90;;;;;;5250024;28;20532;-77
2022/05/03 02:04:20;;;;;;;14.90;5.20;;;11.00;99.90;;;;;;5251280;28;20017;-77
2022/05/03 02:07:10;;;;;;;16.70;5.78;;;11.00;99.90;;;;;;5250954;28;20021;-77
2022/05/03 02:10:04;;;;;;;16.13;5.43;;;11.00;99.90;;;;;;5251042;28;20469;-76
2022/05/03 02:12:35;;;;;;;19.10;5.15;;;10.90;99.90;;;;;;5250948;28;20029;-90
2022/05/03 02:15:14;;;;;;;20.27;6.03;;;11.00;99.90;;;;;;5251162;28;20032;-90
2022/05/03 02:17:59;;;;;;;18.33;8.10;;;11.00;99.90;;;;;;5250143;28;20091;-91
2022/05/03 02:21:08;;;;;;;30.92;16.58;;;10.90;99.90;;;;;;5251128;28;20515;-90
2022/05/03 02:23:59;;;;;;;19.85;7.60;;;11.00;99.90;;;;;;5251469;28;20016;-91
2022/05/03 02:26:43;;;;;;;;;;;11.10;99.90;;;;;;5251415;28;20020;-77
2022/05/03 02:29:22;;;;;;;33.30;13.77;;;11.00;99.90;;;;;;5250371;28;19928;-76
2022/05/03 02:32:11;;;;;;;32.30;13.07;;;11.00;99.90;;;;;;5250353;28;20102;-77
2022/05/03 02:34:53;;;;;;;27.20;9.82;;;11.00;99.90;;;;;;5250354;28;20044;-76
2022/05/03 02:37:32;;;;;;;31.83;16.42;;;11.00;99.90;;;;;;5250473;28;20024;-76
2022/05/03 02:40:08;;;;;;;23.15;11.95;;;11.00;99.90;;;;;;5250603;28;20053;-76
2022/05/03 02:42:39;;;;;;;16.67;5.55;;;11.10;99.90;;;;;;5248851;28;20471;-76
2022/05/03 02:45:13;;;;;;;19.30;7.25;;;10.80;99.90;;;;;;5250089;28;20025;-76
2022/05/03 02:48:13;;;;;;;15.48;5.65;;;10.90;99.90;;;;;;5248865;28;20052;-76
2022/05/03 02:51:03;;;;;;;24.90;8.40;;;10.80;99.90;;;;;;5250204;28;20020;-76
2022/05/03 02:53:43;;;;;;;25.33;9.25;;;10.70;99.90;;;;;;5250062;28;20130;-76
2022/05/03 02:56:25;;;;;;;20.27;6.88;;;11.00;99.90;;;;;;5249989;28;20023;-76
2022/05/03 03:01:47;;;;;;;18.33;6.40;;;10.80;99.90;;;;;;5249710;28;20037;-78
2022/05/03 03:02:35;;;;;;;24.38;7.55;;;10.90;99.90;;;;;;5249578;28;20429;-77
2022/05/03 03:05:08;;;;;;;21.40;6.13;;;10.90;99.90;;;;;;5249924;28;20036;-78
2022/05/03 03:08:02;;;;;;;20.08;8.52;;;10.80;99.90;;;;;;5249448;28;20026;-77
2022/05/03 03:10:43;;;;;;;29.52;9.00;;;10.90;99.90;;;;;;5249816;28;20083;-77
2022/05/03 03:13:26;;;;;;;20.38;6.57;;;10.90;99.90;;;;;;5249787;28;20024;-76
2022/05/03 03:15:57;;;;;;;10.43;4.43;;;10.90;99.90;;;;;;5249776;28;20035;-76
2022/05/03 03:18:33;;;;;;;13.25;4.75;;;10.80;99.90;;;;;;5248981;28;20028;-77
2022/05/03 03:21:08;;;;;;;10.77;3.67;;;10.80;99.90;;;;;;5249214;28;20119;-80
2022/05/03 03:23:40;;;;;;;13.40;4.38;;;10.90;99.90;;;;;;5249357;28;20055;-76
2022/05/03 03:26:13;;;;;;;16.13;3.78;;;10.90;99.90;;;;;;5248972;28;20432;-76
2022/05/03 03:28:46;;;;;;;12.18;4.05;;;10.80;99.90;;;;;;5249021;28;20137;-77
2022/05/03 03:31:19;;;;;;;11.82;3.65;;;10.80;99.90;;;;;;5248091;28;20035;-77
2022/05/03 03:33:51;;;;;;;12.90;4.47;;;10.90;99.90;;;;;;5249111;28;20070;-76
2022/05/03 03:36:23;;;;;;;14.77;4.40;;;10.90;99.90;;;;;;5249042;28;20028;-76
2022/05/03 03:38:54;;;;;;;18.60;5.85;;;10.90;99.90;;;;;;5249021;28;20020;-79
2022/05/03 03:41:25;;;;;;;12.77;3.53;;;11.00;99.90;;;;;;5248819;28;20036;-76
2022/05/03 03:43:56;;;;;;;13.73;3.70;;;10.90;99.90;;;;;;5249123;28;20025;-84
2022/05/03 03:46:27;;;;;;;16.38;4.72;;;11.00;99.90;;;;;;5248620;28;20030;-77
2022/05/03 03:48:58;;;;;;;15.82;5.18;;;10.80;99.90;;;;;;5248803;28;20066;-77
2022/05/03 03:51:29;;;;;;;21.95;5.78;;;11.00;99.90;;;;;;5248851;28;20033;-77
2022/05/03 03:54:01;;;;;;;16.90;4.90;;;11.10;99.90;;;;;;5248942;28;20529;-77
2022/05/03 03:56:32;;;;;;;17.73;4.63;;;11.00;99.90;;;;;;5248802;28;20028;-76
2022/05/03 03:59:04;;;;;;;12.45;4.35;;;10.90;99.90;;;;;;5248708;28;20055;-77
2022/05/03 04:01:35;;;;;;;16.95;5.53;;;10.80;99.90;;;;;;5247680;28;20082;-79
2022/05/03 04:04:08;;;;;;;12.95;4.25;;;10.90;99.90;;;;;;5248742;28;20434;-93
2022/05/03 04:06:39;;;;;;;18.08;4.00;;;11.00;99.90;;;;;;5248839;28;20472;-76
2022/05/03 04:09:10;;;;;;;16.88;5.30;;;10.90;99.90;;;;;;5248526;28;20078;-79
2022/05/03 04:11:43;;;;;;;21.85;5.70;;;10.90;99.90;;;;;;5249202;28;20025;-76
2022/05/03 04:14:15;;;;;;;20.52;6.00;;;10.90;99.90;;;;;;5248681;28;20026;-76
2022/05/03 04:16:46;;;;;;;12.65;4.75;;;11.00;99.90;;;;;;5247373;28;20016;-76
2022/05/03 04:19:17;;;;;;;16.25;4.18;;;10.90;99.90;;;;;;5248426;28;20488;-87
2022/05/03 04:21:48;;;;;;;12.93;4.63;;;10.90;99.90;;;;;;5248419;28;20058;-90
2022/05/03 04:24:19;;;;;;;18.75;4.65;;;10.90;99.90;;;;;;5248529;28;20337;-90
2022/05/03 04:26:50;;;;;;;17.83;5.00;;;11.00;99.90;;;;;;5248127;28;20375;-77
2022/05/03 04:29:21;;;;;;;15.43;5.35;;;11.00;99.90;;;;;;5248467;28;20041;-77
2022/05/03 04:31:52;;;;;;;15.93;5.28;;;11.00;99.90;;;;;;5248170;28;20067;-77
2022/05/03 04:34:22;;;;;;;24.38;9.25;;;11.00;99.90;;;;;;5248215;28;20100;-76
2022/05/03 04:36:53;;;;;;;82.75;35.53;;;11.00;99.90;;;;;;5248300;28;20123;-83
2022/05/03 04:39:24;;;;;;;43.83;19.77;;;10.90;99.90;;;;;;5248096;28;20032;-77
2022/05/03 04:41:55;;;;;;;50.92;23.52;;;11.10;99.90;;;;;;5248043;28;20116;-76
2022/05/03 04:44:25;;;;;;;25.83;10.73;;;11.20;99.90;;;;;;5248221;28;20081;-76
2022/05/03 04:46:56;;;;;;;36.92;15.68;;;11.00;99.90;;;;;;5248191;28;20035;-76
2022/05/03 04:49:27;;;;;;;30.55;12.57;;;11.00;99.90;;;;;;5247783;28;20012;-79
2022/05/03 04:51:58;;;;;;;31.52;11.20;;;11.10;99.90;;;;;;5248016;28;20036;-81
2022/05/03 04:54:29;;;;;;;27.00;12.75;;;11.10;99.90;;;;;;5248157;28;20044;-76
2022/05/03 04:57:05;;;;;;;32.70;15.77;;;11.10;99.90;;;;;;5250337;28;20032;-76
2022/05/03 04:59:37;;;;;;;37.00;15.30;;;11.10;99.90;;;;;;5252060;28;20376;-76
2022/05/03 05:02:08;;;;;;;14.93;7.57;;;11.00;99.90;;;;;;5251889;28;20039;-76
2022/05/03 05:04:39;;;;;;;27.48;12.00;;;10.90;99.90;;;;;;5251958;28;20024;-75
2022/05/03 05:07:10;;;;;;;25.35;10.52;;;11.00;99.90;;;;;;5251956;28;20024;-76
2022/05/03 05:10:23;;;;;;;42.83;20.17;;;11.00;99.90;;;;;;5251921;28;20024;-76
2022/05/03 05:12:31;;;;;;;25.08;13.27;;;11.20;99.90;;;;;;5251592;28;20498;-75
2022/05/03 05:15:02;;;;;;;20.83;8.85;;;11.10;99.90;;;;;;5250536;28;20115;-75
2022/05/03 05:17:33;;;;;;;18.50;9.57;;;11.10;99.90;;;;;;5251508;28;20025;-75
2022/05/03 05:20:05;;;;;;;24.90;13.20;;;11.10;99.90;;;;;;5251419;28;20032;-76
2022/05/03 05:22:36;;;;;;;12.27;7.75;;;11.10;99.90;;;;;;5251442;28;20036;-83
2022/05/03 05:25:07;;;;;;;28.15;14.13;;;11.20;99.90;;;;;;5251590;28;20392;-76
2022/05/03 05:27:38;;;;;;;31.60;12.45;;;11.10;99.90;;;;;;5251078;28;20404;-84
2022/05/03 05:30:10;;;;;;;22.83;9.50;;;11.10;99.90;;;;;;5251478;28;20487;-76
2022/05/03 05:32:40;;;;;;;20.63;8.25;;;11.10;99.90;;;;;;5251476;28;20484;-75
2022/05/03 05:35:12;;;;;;;14.32;8.40;;;11.20;99.90;;;;;;5251383;28;20036;-75
2022/05/03 05:37:43;;;;;;;12.00;7.25;;;11.20;99.90;;;;;;5251156;28;20415;-75
2022/05/03 05:40:13;;;;;;;17.65;7.85;;;11.10;99.90;;;;;;5251286;28;20028;-76
2022/05/03 05:42:44;;;;;;;45.15;9.02;;;11.20;99.90;;;;;;5251178;28;20035;-75
2022/05/03 05:45:16;;;;;;;14.57;6.82;;;11.10;99.90;;;;;;5249899;28;20131;-76
2022/05/03 05:47:47;;;;;;;22.60;9.18;;;11.20;99.90;;;;;;5250834;28;20025;-76
2022/05/03 05:50:17;;;;;;;38.60;27.63;;;11.20;99.90;;;;;;5250968;28;20031;-77
2022/05/03 05:55:38;;;;;;;18.50;10.00;;;11.20;99.90;;;;;;5251207;28;20101;-79
2022/05/03 05:58:09;;;;;;;45.53;27.30;;;11.20;99.90;;;;;;5250924;28;20025;-75
2022/05/03 06:00:40;;;;;;;39.65;16.88;;;11.20;99.90;;;;;;5250755;28;20039;-75
2022/05/03 06:03:11;;;;;;;48.13;29.50;;;11.10;99.90;;;;;;5250824;28;20103;-83
2022/05/03 06:05:43;;;;;;;41.00;20.50;;;11.20;99.90;;;;;;5249614;28;20151;-76
2022/05/03 06:08:14;;;;;;;35.78;18.88;;;11.20;99.90;;;;;;5250285;28;20096;-76
2022/05/03 06:10:45;;;;;;;46.10;24.95;;;11.30;99.90;;;;;;5249369;28;20111;-75
2022/05/03 06:13:16;;;;;;;26.00;12.90;;;11.30;99.90;;;;;;5250652;28;20039;-75
2022/05/03 06:15:48;;;;;;;27.80;12.63;;;11.30;99.90;;;;;;5250666;28;20013;-77
2022/05/03 06:18:19;;;;;;;30.80;13.90;;;11.20;99.90;;;;;;5250837;28;20499;-75
2022/05/03 06:20:50;;;;;;;18.23;9.60;;;11.30;99.90;;;;;;5250455;28;20113;-76
2022/05/03 06:23:21;;;;;;;17.33;8.40;;;11.30;99.90;;;;;;5250579;28;20075;-74
2022/05/03 06:25:52;;;;;;;19.90;11.00;;;11.30;99.90;;;;;;5250312;28;20123;-76
2022/05/03 06:28:23;;;;;;;28.48;14.63;;;11.40;99.90;;;;;;5250200;28;20091;-76
2022/05/03 06:30:53;;;;;;;43.83;28.33;;;11.40;99.90;;;;;;5250121;28;20526;-85
2022/05/03 06:33:24;;;;;;;22.30;14.80;;;11.40;99.90;;;;;;5250223;28;20361;-75
2022/05/03 06:35:55;;;;;;;21.58;10.52;;;11.30;99.90;;;;;;5250174;28;20048;-75
2022/05/03 06:38:26;;;;;;;19.70;10.40;;;11.40;99.90;;;;;;5250287;28;20090;-76
2022/05/03 06:40:59;;;;;;;19.70;13.20;;;11.40;99.90;;;;;;5250268;28;20127;-77
2022/05/03 06:43:30;;;;;;;18.00;9.05;;;11.30;99.90;;;;;;5250061;28;20024;-77
2022/05/03 06:46:01;;;;;;;17.52;7.57;;;11.30;99.90;;;;;;5250041;28;20107;-77
2022/05/03 06:48:32;;;;;;;15.35;6.90;;;11.30;99.90;;;;;;5248937;28;20078;-83
2022/05/03 06:51:05;;;;;;;14.63;5.85;;;11.30;99.90;;;;;;5234672;28;20419;-82
2022/05/03 06:53:36;;;;;;;13.40;5.82;;;11.40;99.90;;;;;;5231737;28;20028;-79
2022/05/03 06:56:07;;;;;;;13.25;6.18;;;11.30;99.90;;;;;;5228911;28;20051;-78
2022/05/03 06:58:39;;;;;;;13.68;5.78;;;11.50;99.90;;;;;;5228078;28;20464;-79
2022/05/03 07:01:12;;;;;;;13.63;5.72;;;11.50;99.90;;;;;;5227338;28;20082;-81
2022/05/03 07:03:43;;;;;;;13.73;5.72;;;11.40;99.90;;;;;;5230508;28;20025;-81
2022/05/03 07:06:20;;;;;;;18.00;6.35;;;11.30;99.90;;;;;;5249710;28;20491;-78
2022/05/03 07:08:51;;;;;;;16.00;6.50;;;11.40;99.90;;;;;;5237312;28;20100;-84
2022/05/03 07:11:21;;;;;;;13.80;5.95;;;11.40;99.90;;;;;;5229027;28;20116;-82
2022/05/03 07:13:52;;;;;;;16.63;6.10;;;11.40;99.90;;;;;;5228877;28;20063;-78
2022/05/03 07:16:23;;;;;;;14.40;5.90;;;11.30;99.90;;;;;;5229033;28;20041;-82
2022/05/03 07:24:33;;;;;;;11.38;6.03;;;11.20;99.90;;;;;;5228602;28;20546;-85
2022/05/03 07:27:04;;;;;;;16.92;5.63;;;11.10;99.90;;;;;;5227550;28;20045;-84
2022/05/03 07:29:35;;;;;;;12.82;5.97;;;11.30;99.90;;;;;;5228520;28;20481;-86
2022/05/03 07:32:06;;;;;;;15.63;5.90;;;11.30;99.90;;;;;;5228584;28;20021;-81
2022/05/03 07:34:37;;;;;;;12.50;6.20;;;11.40;99.90;;;;;;5228321;28;20498;-88
2022/05/03 07:37:09;;;;;;;14.60;5.90;;;11.30;99.90;;;;;;5227861;28;20033;-87
2022/05/03 07:39:39;;;;;;;13.52;6.03;;;11.20;99.90;;;;;;5228052;28;20373;-86
2022/05/03 07:42:10;;;;;;;11.05;5.55;;;11.20;99.90;;;;;;5228411;28;20028;-81
2022/05/03 07:44:41;;;;;;;19.88;6.55;;;11.20;99.90;;;;;;5228669;28;20028;-76
2022/05/03 07:47:12;;;;;;;10.52;6.20;;;11.20;99.90;;;;;;5228970;28;20472;-92
2022/05/03 07:49:43;;;;;;;13.48;6.40;;;11.10;99.90;;;;;;5228149;28;20033;-91
2022/05/03 07:52:14;;;;;;;16.17;7.00;;;11.10;99.90;;;;;;5228002;28;20028;-87
2022/05/03 07:54:45;;;;;;;8.93;6.07;;;11.20;99.90;;;;;;5227767;28;20025;-86
2022/05/03 07:57:16;;;;;;;17.67;6.72;;;11.30;99.90;;;;;;5237425;28;20538;-78
2022/05/03 07:59:47;;;;;;;26.33;11.07;;;11.20;99.90;;;;;;5248355;28;20032;-81
2022/05/03 08:02:18;;;;;;;33.33;19.40;;;11.40;99.90;;;;;;5247310;28;20060;-81
2022/05/03 08:04:53;;;;;;;25.15;12.43;;;11.50;99.90;;;;;;5247078;28;20048;-83
2022/05/03 08:07:24;;;;;;;29.08;16.88;;;11.30;99.90;;;;;;5239212;28;20029;-90
2022/05/03 08:09:55;;;;;;;23.80;10.23;;;11.40;99.90;;;;;;5249375;28;20036;-78
2022/05/03 08:12:26;;;;;;;8.38;5.63;;;11.30;99.90;;;;;;5248310;28;20078;-80
2022/05/03 08:14:57;;;;;;;13.98;6.22;;;11.20;99.90;;;;;;5247878;28;20021;-77
2022/05/03 08:17:28;;;;;;;19.08;6.45;;;11.20;99.90;;;;;;5247495;28;20031;-78
2022/05/03 08:19:59;;;;;;;18.13;7.35;;;11.40;99.90;;;;;;5247829;28;20036;-85
2022/05/03 08:22:33;;;;;;;12.30;7.90;;;11.40;99.90;;;;;;5246699;28;20091;-88
2022/05/03 08:25:04;;;;;;;16.60;7.68;;;11.20;99.90;;;;;;5248192;28;20029;-78
2022/05/03 08:27:40;;;;;;;17.50;7.35;;;11.10;99.90;;;;;;5241354;28;20040;-88
2022/05/03 08:30:12;;;;;;;17.73;8.00;;;11.10;99.90;;;;;;5227906;28;20064;-84
2022/05/03 08:32:42;;;;;;;18.25;10.05;;;11.10;99.90;;;;;;5227523;28;20513;-77
2022/05/03 08:35:14;;;;;;;14.70;6.72;;;11.20;99.90;;;;;;5227654;28;20134;-77
2022/05/03 08:43:28;;;;;;;14.85;6.90;;;11.30;99.90;;;;;;5227730;28;20036;-79
2022/05/03 08:46:01;;;;;;;22.83;8.38;;;11.20;99.90;;;;;;5225911;28;20059;-77
2022/05/03 08:48:35;;;;;;;17.05;8.40;;;11.40;99.90;;;;;;5227209;28;20096;-77
2022/05/03 08:51:07;;;;;;;17.05;8.10;;;11.60;99.90;;;;;;5226011;28;20075;-76
2022/05/03 08:53:39;;;;;;;37.97;11.88;;;11.40;99.90;;;;;;5227178;28;20039;-81
2022/05/03 08:56:10;;;;;;;18.45;9.73;;;11.40;99.90;;;;;;5225818;28;20151;-77
2022/05/03 08:58:42;;;;;;;20.17;8.23;;;11.50;99.90;;;;;;5225880;28;20069;-78
2022/05/03 09:01:13;;;;;;;18.95;8.93;;;11.50;99.90;;;;;;5226876;28;20037;-79
2022/05/03 09:03:45;;;;;;;18.02;8.77;;;11.50;99.90;;;;;;5226999;28;20021;-83
2022/05/03 09:06:15;;;;;;;11.55;6.10;;;11.60;99.90;;;;;;5225928;28;20100;-83
2022/05/03 09:08:52;;;;;;;10.25;7.15;;;11.60;99.90;;;;;;5227036;28;20028;-81
2022/05/03 09:11:22;;;;;;;13.93;6.70;;;11.60;99.90;;;;;;5225833;28;20025;-79
2022/05/03 09:13:53;;;;;;;16.15;6.78;;;11.70;99.90;;;;;;5227033;28;20051;-79
2022/05/03 09:16:24;;;;;;;12.60;5.18;;;11.90;99.90;;;;;;5225827;28;20094;-78
2022/05/03 09:18:55;;;;;;;14.77;6.55;;;12.00;99.90;;;;;;5226869;28;20503;-77
2022/05/03 09:24:18;;;;;;;14.20;6.30;;;11.90;99.90;;;;;;5227133;28;20067;-79
2022/05/03 09:26:49;;;;;;;12.15;5.65;;;12.10;99.90;;;;;;5226689;28;20033;-77
2022/05/03 09:29:20;;;;;;;9.20;5.05;;;12.40;99.90;;;;;;5227185;28;20035;-79
2022/05/03 09:31:51;;;;;;;14.88;6.72;;;12.50;99.90;;;;;;5226841;28;20029;-81
2022/05/03 09:34:26;;;;;;;14.38;5.88;;;12.20;99.90;;;;;;5226910;28;20033;-78
2022/05/03 09:36:59;;;;;;;13.18;4.45;;;12.40;99.90;;;;;;5226967;28;20021;-77
2022/05/03 09:39:32;;;;;;;14.98;5.13;;;11.90;99.90;;;;;;5226835;28;20107;-77
2022/05/03 09:42:04;;;;;;;13.48;6.07;;;11.90;99.90;;;;;;5227121;28;20408;-77
2022/05/03 09:44:50;;;;;;;20.35;12.05;;;11.90;99.90;;;;;;5229834;28;20057;-78
2022/05/03 09:47:33;;;;;;;25.33;13.30;;;12.00;99.90;;;;;;5229296;28;20035;-78
2022/05/03 09:50:04;;;;;;;28.70;16.60;;;12.20;99.90;;;;;;5230427;28;20045;-78
2022/05/03 09:52:37;;;;;;;15.18;6.60;;;11.90;99.90;;;;;;5230377;28;20028;-79
2022/05/03 09:55:10;;;;;;;18.23;9.93;;;11.80;99.90;;;;;;5230382;28;20036;-78
2022/05/03 09:57:45;;;;;;;21.90;9.75;;;11.90;99.90;;;;;;5230222;28;20057;-77
2022/05/03 10:00:17;;;;;;;24.50;13.00;;;11.90;99.90;;;;;;5230098;28;20036;-79
2022/05/03 10:02:48;;;;;;;32.13;16.58;;;11.90;99.90;;;;;;5228982;28;20116;-77
2022/05/03 10:05:21;;;;;;;32.88;15.25;;;12.10;99.90;;;;;;5230170;28;20067;-78
2022/05/03 10:07:53;;;;;;;24.60;11.60;;;11.90;99.90;;;;;;5230118;28;20032;-77
2022/05/03 10:10:25;;;;;;;45.15;24.75;;;12.00;99.90;;;;;;5228852;28;20380;-78
2022/05/03 10:12:56;;;;;;;32.05;16.05;;;11.90;99.90;;;;;;5228387;28;20036;-77
2022/05/03 10:21:31;;;;;;;14.15;6.75;;;11.90;99.90;;;;;;5229867;28;20036;-78
2022/05/03 10:24:11;;;;;;;12.85;5.22;;;12.10;99.90;;;;;;5228893;28;20025;-78
2022/05/03 10:27:01;;;;;;;;;;;11.90;99.90;;;;;;5228836;28;20037;-78
2022/05/03 10:29:35;;;;;;;9.13;4.78;;;11.90;99.90;;;;;;5228469;28;19917;-77
2022/05/03 10:32:06;;;;;;;16.67;6.68;;;11.80;99.90;;;;;;5229813;28;20029;-77
2022/05/03 10:34:40;;;;;;;13.60;5.60;;;12.00;99.90;;;;;;5228435;28;20493;-78
2022/05/03 10:37:13;;;;;;;7.53;4.10;;;12.10;99.90;;;;;;5229583;28;20086;-79
2022/05/03 10:39:51;;;;;;;10.60;5.00;;;12.30;99.90;;;;;;5229349;28;20068;-79
2022/05/03 10:42:24;;;;;;;11.45;4.10;;;12.30;99.90;;;;;;5228015;28;20029;-78
2022/05/03 10:45:06;;;;;;;8.82;4.20;;;12.20;99.90;;;;;;5228164;28;20043;-78
2022/05/03 10:47:50;;;;;;;8.45;4.13;;;12.30;99.90;;;;;;5229336;28;20029;-77
2022/05/03 10:50:22;;;;;;;11.82;4.80;;;12.30;99.90;;;;;;5229225;28;20040;-78
2022/05/03 10:52:58;;;;;;;10.68;3.42;;;12.60;99.90;;;;;;5228083;28;20021;-76
2022/05/03 10:55:35;;;;;;;10.60;4.10;;;12.50;99.90;;;;;;5229140;28;20021;-76
2022/05/03 10:58:26;;;;;;;8.88;3.75;;;12.20;99.90;;;;;;5229575;28;20064;-77
2022/05/03 11:01:04;;;;;;;;;;;12.50;99.90;;;;;;5229362;28;20036;-77
2022/05/03 11:03:36;;;;;;;16.05;4.00;;;12.50;99.90;;;;;;5229083;28;19905;-76
2022/05/03 11:06:18;;;;;;;7.53;3.80;;;12.30;99.90;;;;;;5228929;28;20036;-77
2022/05/03 11:11:53;;;;;;;9.80;4.20;;;12.20;99.90;;;;;;5228998;28;20090;-78
2022/05/03 11:14:24;;;;;;;12.95;4.10;;;12.20;99.90;;;;;;5228919;28;20021;-78
2022/05/03 11:17:09;;;;;;;9.85;3.28;;;12.10;99.90;;;;;;5228847;28;20025;-78
2022/05/03 11:19:49;;;;;;;7.60;2.88;;;12.00;99.90;;;;;;5228459;28;20090;-80
2022/05/03 11:22:29;;;;;;;7.25;2.85;;;11.90;99.90;;;;;;5228683;28;20439;-77
2022/05/03 11:25:07;;;;;;;10.57;3.30;;;12.10;99.90;;;;;;5227454;28;20111;-76
2022/05/03 11:27:39;;;;;;;11.02;3.53;;;11.90;99.90;;;;;;5228638;28;20048;-80
2022/05/03 11:30:11;;;;;;;7.75;3.55;;;11.90;99.90;;;;;;5228589;28;20025;-78
2022/05/03 11:32:43;;;;;;;11.18;4.15;;;11.90;99.90;;;;;;5227392;28;20025;-78
2022/05/03 11:35:16;;;;;;;8.98;3.30;;;12.00;99.90;;;;;;5228732;28;20033;-77
2022/05/03 11:37:52;;;;;;;12.05;3.70;;;12.00;99.90;;;;;;5228847;28;20037;-81
2022/05/03 11:40:27;;;;;;;13.05;6.45;;;11.90;99.90;;;;;;5229046;28;20119;-77
2022/05/03 11:42:59;;;;;;;20.20;11.50;;;12.00;99.90;;;;;;5229345;28;20021;-77
2022/05/03 11:45:31;;;;;;;25.10;10.73;;;11.90;99.90;;;;;;5228327;28;20108;-78
2022/05/03 11:48:03;;;;;;;31.27;15.82;;;11.70;99.90;;;;;;5228320;28;20419;-81
2022/05/03 11:56:26;;;;;;;35.00;26.92;;;11.90;99.90;;;;;;5228331;28;20040;-77
2022/05/03 11:58:57;;;;;;;48.60;33.25;;;12.00;99.90;;;;;;5228022;28;20110;-78
2022/05/03 12:01:33;;;;;;;17.92;11.88;;;11.90;99.90;;;;;;5227797;28;20065;-78
2022/05/03 12:04:07;;;;;;;12.75;4.45;;;11.90;99.90;;;;;;5227993;28;20130;-77
2022/05/03 12:06:48;;;;;;;12.90;4.72;;;12.00;99.90;;;;;;5227799;28;20112;-76
2022/05/03 12:09:19;;;;;;;9.68;3.55;;;12.10;99.90;;;;;;5228006;28;20484;-77
2022/05/03 12:14:43;;;;;;;7.57;2.78;;;12.00;99.90;;;;;;5228116;28;20495;-79
2022/05/03 12:17:14;;;;;;;9.38;2.75;;;12.10;99.90;;;;;;5227776;28;20017;-78
2022/05/03 12:19:45;;;;;;;8.00;2.60;;;12.00;99.90;;;;;;5226114;28;20099;-78
2022/05/03 12:22:16;;;;;;;13.05;2.53;;;12.00;99.90;;;;;;5226533;28;20045;-79
2022/05/03 12:24:47;;;;;;;12.65;4.28;;;12.20;99.90;;;;;;5227653;28;20033;-79
2022/05/03 12:27:18;;;;;;;10.05;4.00;;;12.20;99.90;;;;;;5227189;28;20477;-80
2022/05/03 12:29:49;;;;;;;9.05;5.95;;;12.40;99.90;;;;;;5227707;28;20040;-78
2022/05/03 12:32:22;;;;;;;18.90;6.25;;;12.40;99.90;;;;;;5241929;28;20025;-84
2022/05/03 12:34:58;;;;;;;8.52;4.38;;;12.50;99.90;;;;;;5247616;28;20037;-79
2022/05/03 12:37:30;;;;;;;7.68;4.40;;;12.60;99.90;;;;;;5248150;28;20463;-78
2022/05/03 12:40:01;;;;;;;9.45;3.30;;;12.50;99.90;;;;;;5248060;28;20107;-77
2022/05/03 12:42:42;;;;;;;9.73;5.68;;;12.20;99.90;;;;;;5248022;28;20115;-77
2022/05/03 12:45:13;;;;;;;15.40;11.93;;;12.50;99.90;;;;;;5248313;28;20028;-77
2022/05/03 12:47:44;;;;;;;14.27;10.65;;;12.30;99.90;;;;;;5248001;28;20027;-77
2022/05/03 12:50:16;;;;;;;15.88;8.50;;;12.20;99.90;;;;;;5247970;28;20024;-76
2022/05/03 12:52:47;;;;;;;10.48;6.28;;;12.20;99.90;;;;;;5248003;28;20029;-77
2022/05/03 12:55:19;;;;;;;11.95;6.90;;;12.30;99.90;;;;;;5246708;28;20036;-79
2022/05/03 13:00:40;;;;;;;11.80;6.38;;;12.10;99.90;;;;;;5247904;28;20040;-76
2022/05/03 13:03:11;;;;;;;13.35;6.20;;;12.30;99.90;;;;;;5246623;28;20028;-77
2022/05/03 13:05:42;;;;;;;12.27;5.45;;;12.10;99.90;;;;;;5246744;28;20046;-78
2022/05/03 13:08:13;;;;;;;10.02;6.30;;;11.90;99.90;;;;;;5246371;28;20468;-83
2022/05/03 13:10:44;;;;;;;7.10;3.33;;;12.00;99.90;;;;;;5248108;28;20017;-83
2022/05/03 13:13:15;;;;;;;7.25;3.25;;;12.10;99.90;;;;;;5248042;28;20021;-82
2022/05/03 13:15:46;;;;;;;10.77;4.28;;;11.90;99.90;;;;;;5247961;28;20028;-83
2022/05/03 13:18:17;;;;;;;10.07;6.55;;;12.10;99.90;;;;;;5247642;28;20039;-83
2022/05/03 13:20:48;;;;;;;29.35;16.48;;;12.20;99.90;;;;;;5251538;28;20032;-85
2022/05/03 13:23:19;;;;;;;13.98;5.82;;;12.10;99.90;;;;;;5251812;28;20025;-83
2022/05/03 13:25:50;;;;;;;11.80;5.07;;;12.00;99.90;;;;;;5251725;28;20432;-86
2022/05/03 13:28:20;;;;;;;9.50;4.85;;;11.80;99.90;;;;;;5251417;28;20045;-85
2022/05/03 13:30:51;;;;;;;12.98;7.70;;;11.80;99.90;;;;;;5251771;28;20027;-79
2022/05/03 13:33:22;;;;;;;18.95;14.07;;;12.00;99.90;;;;;;5251541;28;20545;-87
2022/05/03 13:41:31;;;;;;;12.40;7.32;;;12.00;99.90;;;;;;5251409;28;20048;-87
2022/05/03 13:44:04;;;;;;;7.75;3.72;;;12.10;99.90;;;;;;5251378;28;20017;-87
2022/05/03 13:46:35;;;;;;;9.68;2.95;;;12.00;99.90;;;;;;5251268;28;20475;-85
2022/05/03 13:49:06;;;;;;;7.82;3.08;;;12.00;99.90;;;;;;5251230;28;20074;-85
2022/05/03 13:51:37;;;;;;;8.05;3.17;;;12.00;99.90;;;;;;5251419;28;20116;-80
2022/05/03 13:54:08;;;;;;;18.08;6.88;;;12.00;99.90;;;;;;5250364;28;20021;-81
2022/05/03 13:56:39;;;;;;;8.93;3.83;;;12.00;99.90;;;;;;5243893;28;20117;-81
2022/05/03 13:59:10;;;;;;;5.97;2.55;;;12.00;99.90;;;;;;5247813;28;20020;-78
2022/05/03 14:01:40;;;;;;;10.18;3.35;;;11.80;99.90;;;;;;5247714;28;20047;-77